Time;durP1;ratioP1;P1;durP2;ratioP2;P2;SDS_P1;SDS_P2;PMS_P1;PMS_P2;Temp;Humidity;BMP_temperature;BMP_pressure;BME280_temperature;BME280_humidity;BME280_pressure;Samples;Min_cycle;Max_cycle;Signal;HPM_P1;HPM_P2
2022/12/17 13:06:57;;;;;;;91.45;35.30;;;0.00;49.90;;;;;;5127368;27;20046;-78
2022/12/17 13:09:26;;;;;;;95.20;37.40;;;0.00;49.80;;;;;;5103894;28;20051;-80
2022/12/17 13:12:04;;;;;;;90.35;36.70;;;-0.10;52.50;;;;;;5124031;27;20043;-79
2022/12/17 13:14:47;;;;;;;91.15;35.97;;;-0.10;51.40;;;;;;5104154;27;20078;-79
2022/12/17 13:17:15;;;;;;;86.82;36.28;;;-0.10;59.40;;;;;;5113252;27;20396;-79
2022/12/17 13:19:57;;;;;;;93.78;37.55;;;-0.10;62.20;;;;;;5103490;27;20035;-79
2022/12/17 13:22:23;;;;;;;90.10;36.58;;;-0.10;54.50;;;;;;5121437;27;20050;-80
2022/12/17 13:24:51;;;;;;;86.80;36.28;;;-0.10;60.60;;;;;;5106008;27;20058;-79
2022/12/17 13:27:32;;;;;;;92.32;35.28;;;-0.10;69.50;;;;;;5126564;27;20038;-79
2022/12/17 13:30:16;;;;;;;88.93;35.63;;;0.00;61.00;;;;;;5127735;27;20616;-80
2022/12/17 13:33:12;;;;;;;88.30;35.60;;;0.20;61.40;;;;;;5119779;27;20047;-80
2022/12/17 13:36:11;;;;;;;89.25;35.40;;;0.20;72.10;;;;;;5133703;27;20772;-81
2022/12/17 13:39:02;;;;;;;91.50;35.40;;;0.20;70.70;;;;;;5121600;27;20039;-79
2022/12/17 13:41:31;;;;;;;93.82;35.92;;;0.10;61.40;;;;;;5121563;27;20130;-79
2022/12/17 13:44:00;;;;;;;96.55;35.00;;;-0.10;45.70;;;;;;5135907;27;20534;-79
2022/12/17 13:46:47;;;;;;;93.63;36.70;;;-0.10;60.10;;;;;;5121123;27;20039;-79
2022/12/17 13:49:28;;;;;;;102.28;37.50;;;-0.10;62.80;;;;;;5116621;27;20098;-80
2022/12/17 13:52:25;;;;;;;93.50;34.80;;;-0.10;73.20;;;;;;5125392;27;20031;-81
2022/12/17 13:54:51;;;;;;;98.75;36.08;;;-0.10;81.50;;;;;;5125698;27;20044;-78
2022/12/17 13:57:23;;;;;;;90.75;35.53;;;-0.10;89.40;;;;;;5122331;27;20883;-78
2022/12/17 13:59:55;;;;;;;92.63;36.65;;;0.00;86.30;;;;;;5130351;27;20137;-84
2022/12/17 14:02:28;;;;;;;94.80;36.13;;;0.00;84.30;;;;;;5141256;27;20049;-78
2022/12/17 14:04:56;;;;;;;91.03;32.78;;;0.00;72.80;;;;;;5152661;27;20054;-78
2022/12/17 14:07:23;;;;;;;89.03;35.35;;;0.00;59.00;;;;;;5134443;27;20137;-78
2022/12/17 14:09:49;;;;;;;90.40;34.90;;;0.00;49.20;;;;;;5118069;27;20042;-78
2022/12/17 14:12:20;;;;;;;84.68;33.05;;;-0.10;50.00;;;;;;5109065;27;20039;-79
2022/12/17 14:15:01;;;;;;;90.68;35.90;;;-0.20;50.80;;;;;;5117071;27;20066;-83
2022/12/17 14:17:28;;;;;;;89.03;33.55;;;-0.30;38.20;;;;;;5132731;27;20043;-79
2022/12/17 14:20:19;;;;;;;90.80;35.70;;;-0.40;30.00;;;;;;5113932;27;20039;-80
2022/12/17 14:22:58;;;;;;;88.63;34.13;;;-0.40;10.80;;;;;;5104398;27;20050;-84
2022/12/17 14:25:29;;;;;;;94.55;34.38;;;-0.50;13.80;;;;;;5128017;27;20092;-80
2022/12/17 14:28:02;;;;;;;99.40;34.65;;;-0.60;18.20;;;;;;5129512;27;20039;-78
2022/12/17 14:30:39;;;;;;;91.78;34.30;;;-0.70;27.70;;;;;;5127085;27;20503;-78
2022/12/17 14:33:26;;;;;;;96.30;35.28;;;-0.70;28.50;;;;;;5129382;27;20092;-84
2022/12/17 14:35:56;;;;;;;88.65;33.13;;;-0.80;26.50;;;;;;5146082;27;20039;-81
2022/12/17 14:38:23;;;;;;;92.35;34.72;;;-0.90;32.00;;;;;;5121849;27;20039;-83
2022/12/17 14:40:49;;;;;;;100.30;36.85;;;-0.90;37.90;;;;;;5125283;27;20085;-81
2022/12/17 14:43:15;;;;;;;95.70;35.97;;;-0.90;44.90;;;;;;5108404;27;20039;-83
2022/12/17 14:49:01;;;;;;;99.13;33.28;;;-0.90;56.70;;;;;;5125810;27;20059;-80
2022/12/17 14:51:38;;;;;;;100.03;34.35;;;-0.90;62.60;;;;;;5106388;27;20038;-81
2022/12/17 14:54:24;;;;;;;103.30;35.08;;;-0.90;69.60;;;;;;5120119;27;20058;-82
2022/12/17 14:56:51;;;;;;;106.28;33.63;;;-0.90;73.80;;;;;;5107323;27;20063;-81
2022/12/17 14:59:31;;;;;;;107.28;35.28;;;-0.90;79.90;;;;;;5131359;27;20564;-80
2022/12/17 15:02:00;;;;;;;102.90;35.13;;;-0.90;79.70;;;;;;5118273;27;20484;-79
2022/12/17 15:04:26;;;;;;;96.38;33.95;;;-1.00;77.80;;;;;;5135121;27;20110;-81
2022/12/17 15:06:53;;;;;;;94.70;33.00;;;-1.00;79.20;;;;;;5132940;27;20070;-79
2022/12/17 15:09:19;;;;;;;95.78;32.25;;;-1.00;79.50;;;;;;5131506;27;20488;-80
2022/12/17 15:11:44;;;;;;;98.22;34.15;;;-1.00;76.00;;;;;;5112506;27;20047;-80
2022/12/17 15:14:10;;;;;;;97.10;33.67;;;-1.00;78.50;;;;;;5110424;27;20078;-86
2022/12/17 15:16:36;;;;;;;101.68;33.92;;;-1.00;80.20;;;;;;5131180;27;20043;-80
2022/12/17 15:19:02;;;;;;;102.40;32.08;;;-1.00;75.30;;;;;;5130308;27;20053;-80
2022/12/17 15:21:27;;;;;;;101.88;33.38;;;-1.00;74.90;;;;;;5116090;27;20051;-80
2022/12/17 15:23:53;;;;;;;96.85;31.27;;;-1.00;76.50;;;;;;5113607;27;20065;-80
2022/12/17 15:26:20;;;;;;;98.15;31.77;;;-1.00;79.40;;;;;;5082807;27;20046;-81
2022/12/17 15:28:45;;;;;;;91.82;30.08;;;-1.00;76.70;;;;;;5118075;27;20078;-83
2022/12/17 15:31:13;;;;;;;90.50;30.55;;;-1.00;52.40;;;;;;5103108;27;20066;-84
2022/12/17 15:33:40;;;;;;;99.40;30.05;;;-1.20;39.50;;;;;;5134559;27;20069;-80
2022/12/17 15:36:06;;;;;;;100.57;33.20;;;-1.30;41.00;;;;;;5135213;27;20404;-81
2022/12/17 15:38:32;;;;;;;93.72;30.17;;;-1.30;47.20;;;;;;5114434;27;20043;-80
2022/12/17 15:43:09;;;;;;;109.57;32.90;;;-1.30;51.80;;;;;;5118452;27;20411;-79
2022/12/17 15:43:48;;;;;;;116.50;34.85;;;-1.30;51.00;;;;;;5116102;27;20055;-80
2022/12/17 15:46:15;;;;;;;115.88;33.45;;;-1.30;49.50;;;;;;5117848;27;20437;-86
2022/12/17 15:48:40;;;;;;;109.82;35.95;;;-1.30;53.90;;;;;;5112048;27;20065;-80
2022/12/17 15:51:06;;;;;;;128.02;36.38;;;-1.30;58.20;;;;;;5134808;27;20436;-80
2022/12/17 15:53:32;;;;;;;121.53;35.28;;;-1.30;64.20;;;;;;5133549;27;20648;-80
2022/12/17 15:56:01;;;;;;;114.63;34.63;;;-1.30;67.90;;;;;;5112669;27;20043;-80
2022/12/17 15:58:28;;;;;;;115.22;32.85;;;-1.30;68.40;;;;;;5109530;27;20094;-80
2022/12/17 16:00:54;;;;;;;121.20;33.47;;;-1.30;67.30;;;;;;5134436;27;20507;-80
2022/12/17 16:03:19;;;;;;;113.20;33.78;;;-1.30;66.20;;;;;;5116483;27;20039;-80
2022/12/17 16:05:45;;;;;;;114.05;33.17;;;-1.30;65.30;;;;;;5134236;27;20046;-82
2022/12/17 16:08:11;;;;;;;135.80;40.70;;;-1.40;59.10;;;;;;5128778;27;20043;-80
2022/12/17 16:10:37;;;;;;;112.32;32.70;;;-1.40;54.70;;;;;;5131768;27;20045;-80
2022/12/17 16:13:04;;;;;;;109.80;32.45;;;-1.50;50.20;;;;;;5133750;27;20043;-80
2022/12/17 16:15:30;;;;;;;113.13;33.33;;;-1.50;51.10;;;;;;5132642;27;20534;-79
2022/12/17 16:17:55;;;;;;;119.65;35.53;;;-1.50;47.90;;;;;;5115571;27;20035;-79
2022/12/17 16:20:22;;;;;;;117.85;32.25;;;-1.50;51.80;;;;;;5134156;27;20086;-80
2022/12/17 16:22:48;;;;;;;107.68;30.30;;;-1.50;51.00;;;;;;5113810;27;20088;-80
2022/12/17 16:25:15;;;;;;;108.53;32.03;;;-1.50;46.60;;;;;;5108056;27;20080;-80
2022/12/17 16:27:41;;;;;;;108.25;29.95;;;-1.50;40.60;;;;;;5132495;27;20559;-80
2022/12/17 16:30:07;;;;;;;114.70;32.20;;;-1.50;46.40;;;;;;5098031;27;20121;-81
2022/12/17 16:32:32;;;;;;;113.93;33.10;;;-1.50;43.00;;;;;;5111433;27;20055;-80
2022/12/17 16:34:58;;;;;;;120.43;32.22;;;-1.60;40.00;;;;;;5100871;27;20125;-80
2022/12/17 16:37:24;;;;;;;104.82;30.25;;;-1.60;42.00;;;;;;5103289;27;20043;-80
2022/12/17 16:39:50;;;;;;;120.72;32.00;;;-1.60;39.40;;;;;;5110555;27;20061;-80
2022/12/17 16:42:16;;;;;;;115.22;31.13;;;-1.60;42.90;;;;;;5113525;27;20755;-80
2022/12/17 16:44:42;;;;;;;116.78;33.55;;;-1.60;47.50;;;;;;5114967;27;20935;-79
2022/12/17 16:47:09;;;;;;;116.05;33.17;;;-1.60;51.30;;;;;;5113941;27;20039;-79
2022/12/17 16:49:34;;;;;;;110.65;31.52;;;-1.60;48.60;;;;;;5123319;27;20039;-78
2022/12/17 16:52:02;;;;;;;125.78;32.67;;;-1.60;53.30;;;;;;5127478;27;20103;-79
2022/12/17 16:54:30;;;;;;;123.13;32.38;;;-1.60;49.30;;;;;;5127933;27;20674;-79
2022/12/17 16:56:55;;;;;;;134.20;33.35;;;-1.70;46.90;;;;;;5110213;27;20066;-79
2022/12/17 16:59:22;;;;;;;113.53;30.17;;;-1.70;45.50;;;;;;5114913;27;20055;-78
2022/12/17 17:01:49;;;;;;;129.63;34.13;;;-1.70;48.80;;;;;;5114999;27;20127;-78
2022/12/17 17:04:17;;;;;;;131.93;32.22;;;-1.60;50.70;;;;;;5115416;27;20578;-79
2022/12/17 17:06:45;;;;;;;121.35;31.77;;;-1.70;51.90;;;;;;5097619;27;20468;-78
2022/12/17 17:09:12;;;;;;;133.68;34.58;;;-1.70;56.40;;;;;;5126889;27;20055;-79
2022/12/17 17:11:38;;;;;;;128.02;31.15;;;-1.70;58.10;;;;;;5114317;27;20051;-78
2022/12/17 17:14:05;;;;;;;118.72;31.52;;;-1.70;54.40;;;;;;5086221;28;20058;-78
2022/12/17 17:16:33;;;;;;;131.90;32.67;;;-1.70;56.60;;;;;;5129907;27;20396;-79
2022/12/17 17:18:59;;;;;;;127.75;34.08;;;-1.70;51.30;;;;;;5096372;27;20038;-78
2022/12/17 17:21:33;;;;;;;130.68;34.22;;;-1.70;58.00;;;;;;5131583;27;20035;-82
2022/12/17 17:24:08;;;;;;;141.30;35.28;;;-1.70;62.20;;;;;;5131533;27;20088;-81
2022/12/17 17:26:34;;;;;;;125.68;32.47;;;-1.70;63.90;;;;;;5131588;27;20054;-78
2022/12/17 17:29:00;;;;;;;129.82;34.35;;;-1.70;63.90;;;;;;5097357;27;20465;-78
2022/12/17 17:31:26;;;;;;;133.60;34.75;;;-1.80;67.80;;;;;;5113431;27;20038;-81
2022/12/17 17:33:52;;;;;;;133.27;35.13;;;-1.70;71.00;;;;;;5101605;28;20196;-79
2022/12/17 17:36:21;;;;;;;132.68;36.38;;;-1.60;67.50;;;;;;5123148;27;20556;-78
2022/12/17 17:38:48;;;;;;;131.30;33.67;;;-1.70;67.10;;;;;;5113721;27;20045;-78
2022/12/17 17:41:16;;;;;;;120.90;32.78;;;-1.70;62.20;;;;;;5126023;28;20076;-78
2022/12/17 17:43:42;;;;;;;123.60;33.40;;;-1.80;58.40;;;;;;5121304;27;20062;-83
2022/12/17 17:46:18;;;;;;;115.93;32.40;;;-1.80;55.10;;;;;;5100253;28;20043;-81
2022/12/17 17:48:45;;;;;;;124.97;33.95;;;-1.80;56.50;;;;;;5112977;27;20119;-79
2022/12/17 17:51:20;;;;;;;118.18;32.28;;;-1.90;54.10;;;;;;5121554;27;20039;-79
2022/12/17 17:53:48;;;;;;;124.63;31.48;;;-1.90;55.20;;;;;;5129710;27;20051;-79
2022/12/17 17:56:19;;;;;;;118.10;32.75;;;-1.90;58.00;;;;;;5120819;28;20489;-79
2022/12/17 17:58:50;;;;;;;125.90;33.17;;;-1.90;55.50;;;;;;5111693;27;20049;-79
2022/12/17 18:01:22;;;;;;;116.90;33.92;;;-1.90;45.00;;;;;;5112228;28;20504;-79
2022/12/17 18:03:48;;;;;;;123.05;34.35;;;-2.00;47.10;;;;;;5131968;27;20043;-79
2022/12/17 18:06:14;;;;;;;121.57;34.50;;;-2.00;49.00;;;;;;5098353;27;20487;-84
2022/12/17 18:08:41;;;;;;;125.40;34.03;;;-2.00;50.00;;;;;;5133315;27;20038;-80
2022/12/17 18:11:12;;;;;;;117.68;35.22;;;-2.10;51.50;;;;;;5122637;27;20082;-79
2022/12/17 18:13:56;;;;;;;112.82;33.05;;;-2.10;49.50;;;;;;5115602;27;20061;-79
2022/12/17 18:16:31;;;;;;;111.82;35.17;;;-2.20;47.50;;;;;;5133485;27;20038;-78
2022/12/17 18:19:02;;;;;;;116.05;34.63;;;-2.20;47.20;;;;;;5136087;27;20035;-80
2022/12/17 18:21:29;;;;;;;118.97;36.03;;;-2.20;50.70;;;;;;5107088;27;20050;-79
2022/12/17 18:24:09;;;;;;;116.35;34.53;;;-2.20;53.40;;;;;;5105863;27;20070;-82
2022/12/17 18:26:38;;;;;;;129.40;36.42;;;-2.20;53.20;;;;;;5099132;27;20408;-85
2022/12/17 18:29:19;;;;;;;122.97;37.97;;;-2.10;56.20;;;;;;5097091;27;20038;-78
2022/12/17 18:31:45;;;;;;;120.00;37.25;;;-2.20;59.70;;;;;;5126433;27;20046;-79
2022/12/17 18:34:13;;;;;;;117.43;32.40;;;-2.10;64.10;;;;;;5111394;27;20395;-79
2022/12/17 18:36:41;;;;;;;124.80;36.47;;;-2.10;64.10;;;;;;5098846;27;20126;-79
2022/12/17 18:39:11;;;;;;;125.20;36.72;;;-1.90;68.50;;;;;;5118302;27;20054;-79
2022/12/17 18:44:22;;;;;;;134.95;38.72;;;-2.10;73.40;;;;;;5131962;27;20449;-79
2022/12/17 18:46:47;;;;;;;125.07;38.50;;;-2.10;75.40;;;;;;5117447;27;20039;-79
2022/12/17 18:49:15;;;;;;;129.80;38.47;;;-2.10;77.50;;;;;;5135391;27;20051;-80
2022/12/17 18:51:44;;;;;;;139.95;40.35;;;-2.00;79.40;;;;;;5106715;27;20045;-79
2022/12/17 18:54:15;;;;;;;122.45;38.92;;;-2.00;81.60;;;;;;5130099;27;20035;-79
2022/12/17 18:56:41;;;;;;;122.50;39.10;;;-2.00;78.50;;;;;;5131999;27;20066;-79
2022/12/17 18:59:07;;;;;;;119.60;37.80;;;-2.00;73.20;;;;;;5116856;27;20082;-80
2022/12/17 19:01:36;;;;;;;113.53;36.45;;;-2.10;65.20;;;;;;5125551;27;20054;-80
2022/12/17 19:04:07;;;;;;;113.75;37.50;;;-2.10;55.60;;;;;;5112857;27;20514;-79
2022/12/17 19:06:34;;;;;;;119.32;39.45;;;-2.20;54.90;;;;;;5135186;27;20069;-82
2022/12/17 19:09:01;;;;;;;117.55;39.80;;;-2.10;56.40;;;;;;5131790;27;20042;-81
2022/12/17 19:11:27;;;;;;;115.00;38.58;;;-2.20;57.50;;;;;;5124239;27;20077;-80
2022/12/17 19:13:53;;;;;;;118.55;39.78;;;-2.20;61.00;;;;;;5128101;27;20043;-80
2022/12/17 19:16:21;;;;;;;118.97;40.65;;;-2.00;61.50;;;;;;5116979;27;20064;-79
2022/12/17 19:19:00;;;;;;;132.50;42.65;;;-2.20;60.50;;;;;;5112095;27;20468;-79
2022/12/17 19:21:28;;;;;;;126.80;42.00;;;-2.00;61.50;;;;;;5113270;27;20043;-81
2022/12/17 19:24:02;;;;;;;128.02;40.83;;;-2.20;59.60;;;;;;5131998;27;20046;-79
2022/12/17 19:26:29;;;;;;;121.85;39.55;;;-2.20;56.10;;;;;;5116889;27;20046;-80
2022/12/17 19:28:56;;;;;;;129.73;41.20;;;-2.20;56.90;;;;;;5130385;27;20039;-79
2022/12/17 19:31:24;;;;;;;125.13;42.67;;;-2.20;54.60;;;;;;5117324;27;20111;-79
2022/12/17 19:33:54;;;;;;;125.88;42.08;;;-2.20;55.70;;;;;;5119086;27;20058;-81
2022/12/17 19:36:21;;;;;;;120.03;39.95;;;-2.20;51.90;;;;;;5122226;27;20419;-79
2022/12/17 19:38:51;;;;;;;124.65;40.60;;;-2.30;48.80;;;;;;5115270;27;20047;-79
2022/12/17 19:41:18;;;;;;;125.72;43.67;;;-2.30;45.20;;;;;;5116998;27;20050;-79
2022/12/17 19:43:46;;;;;;;128.20;41.95;;;-2.30;48.70;;;;;;5112158;27;20492;-84
2022/12/17 19:46:17;;;;;;;128.32;42.15;;;-2.30;48.80;;;;;;5133911;27;20437;-80
2022/12/17 19:48:44;;;;;;;123.15;42.90;;;-2.30;52.40;;;;;;5115766;27;20058;-80
2022/12/17 19:51:11;;;;;;;144.65;43.65;;;-2.40;54.20;;;;;;5133705;27;20053;-81
2022/12/17 19:53:39;;;;;;;132.50;43.25;;;-2.40;57.20;;;;;;5127114;27;20461;-79
2022/12/17 19:56:20;;;;;;;137.27;45.40;;;-2.30;61.80;;;;;;5120817;27;20114;-81
2022/12/17 19:58:49;;;;;;;138.23;45.08;;;-2.30;66.30;;;;;;5132517;27;20071;-85
2022/12/17 20:01:18;;;;;;;135.10;44.92;;;-2.10;70.80;;;;;;5122663;27;20047;-80
2022/12/17 20:03:45;;;;;;;142.93;44.88;;;-2.20;73.10;;;;;;5126534;27;20043;-79
2022/12/17 20:06:12;;;;;;;138.55;44.90;;;-2.20;74.80;;;;;;5124997;27;20074;-80
2022/12/17 20:08:38;;;;;;;145.32;45.15;;;-2.20;75.20;;;;;;5114242;27;20051;-79
2022/12/17 20:13:58;;;;;;;139.38;43.15;;;-2.20;74.00;;;;;;5118495;27;20054;-79
2022/12/17 20:16:24;;;;;;;149.40;46.28;;;-2.20;72.00;;;;;;5133141;27;20407;-79
2022/12/17 20:18:50;;;;;;;148.85;47.33;;;-2.20;67.50;;;;;;5095514;27;20042;-83
2022/12/17 20:21:16;;;;;;;145.57;44.67;;;-2.20;61.80;;;;;;5112803;27;20137;-79
2022/12/17 20:23:48;;;;;;;156.10;46.63;;;-2.20;63.80;;;;;;5119131;27;20050;-80
2022/12/17 20:26:15;;;;;;;146.98;46.33;;;-2.30;65.70;;;;;;5101750;27;20053;-79
2022/12/17 20:28:41;;;;;;;149.40;44.80;;;-2.30;67.40;;;;;;5104963;27;20051;-79
2022/12/17 20:31:06;;;;;;;149.50;46.10;;;-2.30;56.20;;;;;;5125691;27;20035;-80
2022/12/17 20:33:32;;;;;;;149.60;44.70;;;-2.30;63.00;;;;;;5092199;27;20515;-79
2022/12/17 20:36:10;;;;;;;144.80;44.05;;;-2.30;62.30;;;;;;5111836;27;20498;-79
2022/12/17 20:38:37;;;;;;;154.82;44.13;;;-2.40;52.20;;;;;;5112433;27;20035;-79
2022/12/17 20:41:10;;;;;;;152.07;44.60;;;-2.40;53.50;;;;;;5105371;27;20118;-81
2022/12/17 20:43:36;;;;;;;154.35;45.47;;;-2.40;55.00;;;;;;5115550;27;20071;-80
2022/12/17 20:46:01;;;;;;;136.43;41.17;;;-2.40;56.70;;;;;;5116827;27;20134;-80
2022/12/17 20:48:27;;;;;;;158.10;45.35;;;-2.40;58.20;;;;;;5108143;27;20148;-80
2022/12/17 20:50:53;;;;;;;152.90;44.17;;;-2.40;60.50;;;;;;5111419;27;20507;-86
2022/12/17 20:53:19;;;;;;;147.63;41.55;;;-2.50;58.60;;;;;;5098981;27;20126;-80
2022/12/17 20:55:45;;;;;;;147.00;43.67;;;-2.30;55.40;;;;;;5098006;27;20047;-80
2022/12/17 20:58:12;;;;;;;131.60;39.90;;;-2.50;52.60;;;;;;5114006;27;20047;-83
2022/12/17 21:00:39;;;;;;;135.60;41.63;;;-2.60;56.80;;;;;;5107363;28;20059;-79
2022/12/17 21:03:05;;;;;;;140.40;43.28;;;-2.50;55.30;;;;;;5088178;28;20440;-79
2022/12/17 21:05:34;;;;;;;145.90;41.85;;;-2.50;57.80;;;;;;5074885;28;20068;-81
2022/12/17 21:07:59;;;;;;;138.23;41.92;;;-2.50;60.60;;;;;;5102143;28;20051;-80
2022/12/17 21:10:25;;;;;;;143.45;42.83;;;-2.50;62.00;;;;;;5091810;28;20039;-80
2022/12/17 21:15:35;;;;;;;140.60;42.38;;;-2.60;51.60;;;;;;5089149;28;20077;-79
2022/12/17 21:18:01;;;;;;;137.68;41.42;;;-2.30;51.20;;;;;;5104442;28;20043;-79
2022/12/17 21:20:26;;;;;;;147.65;42.95;;;-2.60;49.90;;;;;;5092576;28;20105;-79
2022/12/17 21:22:52;;;;;;;154.25;43.42;;;-2.50;52.40;;;;;;5096366;28;20039;-80
2022/12/17 21:25:18;;;;;;;141.90;43.38;;;-2.60;54.40;;;;;;5099047;28;20036;-79
2022/12/17 21:27:43;;;;;;;153.40;42.72;;;-2.60;56.40;;;;;;5087170;28;20043;-79
2022/12/17 21:30:09;;;;;;;146.85;42.20;;;-2.50;58.80;;;;;;5107739;28;20071;-80
2022/12/17 21:32:35;;;;;;;139.85;40.22;;;-2.60;58.80;;;;;;5062329;28;20052;-79
2022/12/17 21:35:01;;;;;;;143.25;41.35;;;-2.60;59.20;;;;;;5085326;28;20101;-79
2022/12/17 21:37:26;;;;;;;137.38;42.80;;;-2.60;60.20;;;;;;5091331;28;20120;-79
2022/12/17 21:39:52;;;;;;;138.35;40.58;;;-2.60;62.80;;;;;;5090499;28;20055;-78
2022/12/17 21:45:02;;;;;;;131.43;36.38;;;-2.50;61.60;;;;;;5112945;28;20067;-79
2022/12/17 21:47:28;;;;;;;126.10;36.78;;;-2.60;57.20;;;;;;5093496;28;20060;-80
2022/12/17 21:49:54;;;;;;;138.88;37.05;;;-2.60;49.50;;;;;;5092296;28;20127;-79
2022/12/17 21:52:22;;;;;;;136.75;37.15;;;-2.70;40.30;;;;;;5106305;28;20043;-80
2022/12/17 21:54:47;;;;;;;132.10;39.20;;;-2.70;39.90;;;;;;5087784;28;20075;-80
2022/12/17 21:57:14;;;;;;;148.23;41.08;;;-2.70;48.70;;;;;;5086719;27;20086;-80
2022/12/17 21:59:40;;;;;;;152.73;42.38;;;-2.70;45.90;;;;;;5115929;27;20051;-80
2022/12/17 22:02:06;;;;;;;138.25;37.10;;;-2.80;47.60;;;;;;5112910;27;20035;-80
2022/12/17 22:04:31;;;;;;;136.48;39.22;;;-2.80;49.80;;;;;;5136560;27;20054;-79
2022/12/17 22:06:57;;;;;;;140.27;38.25;;;-2.80;45.10;;;;;;5119254;27;20035;-80
2022/12/17 22:09:23;;;;;;;139.50;39.28;;;-2.80;42.60;;;;;;5114334;27;20035;-79
2022/12/17 22:14:01;;;;;;;133.07;38.90;;;-2.80;43.60;;;;;;5112829;27;20031;-79
2022/12/17 22:14:34;;;;;;;166.00;43.50;;;-2.70;45.90;;;;;;5122092;27;20141;-80
2022/12/17 22:17:00;;;;;;;143.75;38.95;;;-2.80;44.40;;;;;;5119174;27;20560;-78
2022/12/17 22:19:25;;;;;;;150.85;38.83;;;-2.90;45.80;;;;;;5101799;27;20054;-79
2022/12/17 22:21:51;;;;;;;140.50;41.20;;;-2.90;48.40;;;;;;5115611;27;20043;-78
2022/12/17 22:24:20;;;;;;;144.20;39.15;;;-2.90;49.70;;;;;;5095268;27;20059;-79
2022/12/17 22:26:46;;;;;;;140.75;37.92;;;-2.90;48.30;;;;;;5118954;27;20043;-79
2022/12/17 22:32:58;;;;;;;130.23;36.25;;;-2.80;48.90;;;;;;5121170;27;20069;-79
2022/12/17 22:34:42;;;;;;;118.43;33.25;;;-3.00;36.10;;;;;;5135294;27;20403;-79
2022/12/17 22:37:08;;;;;;;115.22;33.10;;;-3.00;35.10;;;;;;5089822;27;20043;-85
2022/12/17 22:39:33;;;;;;;116.30;35.92;;;-3.00;32.30;;;;;;5135373;27;20050;-83
2022/12/17 22:44:43;;;;;;;121.57;32.70;;;-3.10;32.00;;;;;;5109828;27;20050;-80
2022/12/17 22:47:09;;;;;;;112.30;32.30;;;-3.10;32.90;;;;;;5099296;27;20047;-84
2022/12/17 22:49:34;;;;;;;123.30;34.05;;;-3.10;30.10;;;;;;5118883;27;20038;-80
2022/12/17 22:52:00;;;;;;;130.60;36.60;;;-3.10;27.80;;;;;;5097766;27;20500;-81
2022/12/17 22:54:26;;;;;;;116.90;33.63;;;-3.10;29.00;;;;;;5082033;27;20721;-80
2022/12/17 22:56:51;;;;;;;121.93;32.42;;;-3.10;26.90;;;;;;5094516;27;20427;-80
2022/12/17 22:59:18;;;;;;;119.00;34.65;;;-3.20;25.00;;;;;;5112643;27;20484;-80
2022/12/17 23:01:45;;;;;;;114.90;32.92;;;-3.20;28.60;;;;;;5085466;27;20043;-80
2022/12/17 23:04:13;;;;;;;117.32;33.35;;;-3.20;30.20;;;;;;5086765;27;20074;-85
2022/12/17 23:06:39;;;;;;;128.40;34.28;;;-3.20;36.90;;;;;;5116168;27;20039;-82
2022/12/17 23:09:04;;;;;;;118.45;35.45;;;-3.10;36.70;;;;;;5115854;27;20487;-80
2022/12/17 23:11:30;;;;;;;123.50;35.08;;;-3.10;37.90;;;;;;5113612;27;20046;-82
2022/12/17 23:13:56;;;;;;;115.20;33.40;;;-3.10;38.90;;;;;;5125272;27;20270;-80
2022/12/17 23:16:22;;;;;;;124.07;35.45;;;-3.10;38.50;;;;;;5114150;27;20552;-80
2022/12/17 23:18:50;;;;;;;121.78;34.15;;;-3.10;35.10;;;;;;5107593;27;20400;-81
2022/12/17 23:21:19;;;;;;;120.93;32.85;;;-3.10;32.20;;;;;;5110721;27;20047;-80
2022/12/17 23:23:45;;;;;;;129.52;35.55;;;-3.10;28.80;;;;;;5104435;27;20109;-80
2022/12/17 23:26:13;;;;;;;122.78;34.17;;;-3.10;32.90;;;;;;5112638;27;20507;-81
2022/12/17 23:28:39;;;;;;;122.38;36.58;;;-3.10;30.60;;;;;;5126484;27;20054;-80
2022/12/17 23:31:16;;;;;;;134.00;36.75;;;-3.20;31.60;;;;;;5098834;27;20046;-80
2022/12/17 23:33:43;;;;;;;126.20;34.10;;;-3.10;34.60;;;;;;5113079;27;20043;-81
2022/12/17 23:36:15;;;;;;;129.10;36.53;;;-3.20;32.90;;;;;;5098802;27;20043;-80
2022/12/17 23:38:41;;;;;;;133.43;35.40;;;-3.20;31.60;;;;;;5133005;27;20067;-81
2022/12/17 23:41:12;;;;;;;132.23;36.22;;;-3.20;32.40;;;;;;5134339;27;20034;-80
2022/12/17 23:43:38;;;;;;;129.07;35.35;;;-3.30;34.20;;;;;;5113480;27;20061;-80
2022/12/17 23:46:05;;;;;;;155.02;43.25;;;-3.20;35.10;;;;;;5116397;27;20047;-82
2022/12/17 23:48:33;;;;;;;150.95;37.90;;;-3.20;35.20;;;;;;5116948;27;20062;-83
2022/12/17 23:50:59;;;;;;;149.63;38.72;;;-3.20;37.10;;;;;;5121126;27;20053;-80
2022/12/17 23:53:28;;;;;;;137.02;37.13;;;-3.20;41.40;;;;;;5132931;27;20054;-82
2022/12/17 23:55:54;;;;;;;129.38;35.42;;;-3.20;43.60;;;;;;5116414;27;20103;-80
2022/12/17 23:58:20;;;;;;;143.75;36.60;;;-3.20;41.50;;;;;;5114222;27;20055;-81
